Time;durP1;ratioP1;P1;durP2;ratioP2;P2;SDS_P1;SDS_P2;PMS_P1;PMS_P2;Temp;Humidity;BMP_temperature;BMP_pressure;BME280_temperature;BME280_humidity;BME280_pressure;Samples;Min_cycle;Max_cycle;Signal;HPM_P1;HPM_P2
2023/07/17 00:01:44;;;;;;;3.90;2.80;;;;;;;27.26;39.40;99864.69;5030528;28;20515;-43
2023/07/17 00:04:09;;;;;;;4.13;3.08;;;;;;;27.37;39.29;99865.22;5030613;28;20113;-47
2023/07/17 00:06:35;;;;;;;4.93;2.53;;;;;;;27.49;39.05;99870.94;5030874;28;20028;-45
2023/07/17 00:09:00;;;;;;;5.82;2.85;;;;;;;27.63;38.72;99875.50;5030451;28;20021;-45
2023/07/17 00:11:26;;;;;;;4.35;2.90;;;;;;;27.40;39.17;99877.47;5030234;28;20106;-47
2023/07/17 00:13:51;;;;;;;3.72;2.90;;;;;;;26.89;39.53;99879.50;5030450;28;20401;-45
2023/07/17 00:16:16;;;;;;;3.63;2.85;;;;;;;27.07;39.46;99877.69;5030462;28;20076;-44
2023/07/17 00:18:42;;;;;;;5.90;3.08;;;;;;;27.37;38.86;99880.81;5030800;28;20029;-47
2023/07/17 00:21:09;;;;;;;3.65;2.70;;;;;;;27.42;38.65;99872.50;5030151;28;20572;-48
2023/07/17 00:23:34;;;;;;;3.67;2.88;;;;;;;27.47;38.63;99878.66;5029163;28;20452;-49
2023/07/17 00:25:59;;;;;;;4.35;2.97;;;;;;;27.61;38.04;99877.75;5030650;28;20052;-48
2023/07/17 00:28:25;;;;;;;6.35;2.70;;;;;;;27.95;37.19;99882.59;5030555;28;20413;-47
2023/07/17 00:30:50;;;;;;;5.25;3.00;;;;;;;27.76;37.45;99882.81;5030409;28;20022;-48
2023/07/17 00:33:16;;;;;;;4.38;2.70;;;;;;;27.25;38.33;99876.72;5030256;28;20472;-47
2023/07/17 00:35:41;;;;;;;3.58;2.70;;;;;;;27.20;38.66;99878.75;5030214;28;20481;-48
2023/07/17 00:38:07;;;;;;;5.93;2.72;;;;;;;26.98;38.82;99885.00;5030385;28;20021;-47
2023/07/17 00:40:34;;;;;;;4.10;2.70;;;;;;;27.23;38.52;99887.13;5029731;28;20033;-45
2023/07/17 00:43:00;;;;;;;6.72;2.75;;;;;;;27.52;37.91;99896.81;5034210;28;20059;-45
2023/07/17 00:45:30;;;;;;;4.63;2.75;;;;;;;27.46;37.89;99890.69;5034265;28;20051;-46
2023/07/17 00:47:55;;;;;;;4.10;2.85;;;;;;;27.67;37.22;99892.88;5034020;28;20032;-44
2023/07/17 00:50:21;;;;;;;4.30;2.90;;;;;;;27.21;38.22;99891.31;5033748;28;20029;-46
2023/07/17 00:52:46;;;;;;;4.20;2.55;;;;;;;27.05;38.24;99888.94;5034445;28;20021;-47
2023/07/17 00:55:13;;;;;;;3.38;2.55;;;;;;;27.22;38.12;99882.78;5034167;28;20041;-48
2023/07/17 00:57:39;;;;;;;4.38;2.70;;;;;;;27.41;38.13;99885.34;5034273;28;20021;-46
2023/07/17 01:00:08;;;;;;;3.75;2.90;;;;;;;27.42;37.82;99886.97;5034209;28;20098;-47
2023/07/17 01:02:34;;;;;;;3.38;2.80;;;;;;;27.50;37.97;99891.66;5034261;28;20097;-46
2023/07/17 01:04:59;;;;;;;3.42;2.55;;;;;;;28.00;37.27;99890.63;5033333;28;20174;-45
2023/07/17 01:07:25;;;;;;;2.83;2.50;;;;;;;27.74;37.60;99893.25;5033819;28;20021;-44
2023/07/17 01:09:52;;;;;;;3.67;2.83;;;;;;;27.27;38.21;99892.81;5033785;28;20022;-48
2023/07/17 01:12:17;;;;;;;3.67;2.88;;;;;;;27.19;38.68;99890.78;5033658;28;20064;-44
2023/07/17 01:14:43;;;;;;;3.70;2.67;;;;;;;27.28;38.42;99894.41;5033773;28;20453;-45
2023/07/17 01:17:08;;;;;;;3.65;2.85;;;;;;;27.30;38.69;99895.75;5034073;28;20452;-44
2023/07/17 01:19:34;;;;;;;4.22;3.00;;;;;;;27.45;37.98;99893.72;5033292;28;20408;-43
2023/07/17 01:22:04;;;;;;;4.60;3.00;;;;;;;27.50;37.40;99891.66;5033404;28;20473;-44
2023/07/17 01:24:29;;;;;;;4.00;2.80;;;;;;;28.02;36.79;99898.50;5033548;28;20032;-42
2023/07/17 01:26:55;;;;;;;4.05;2.58;;;;;;;27.24;37.68;99891.47;5033292;28;20037;-44
2023/07/17 01:29:20;;;;;;;5.63;3.13;;;;;;;26.65;39.20;99898.88;5033434;28;20087;-45
2023/07/17 01:31:46;;;;;;;4.75;2.90;;;;;;;26.60;39.21;99897.09;5033402;28;20024;-44
2023/07/17 01:34:12;;;;;;;4.05;2.75;;;;;;;26.74;38.81;99897.03;5033503;28;20052;-46
2023/07/17 01:36:37;;;;;;;5.40;3.08;;;;;;;26.97;38.76;99892.41;5033246;28;20033;-47
2023/07/17 01:39:03;;;;;;;4.22;2.78;;;;;;;27.15;38.41;99898.00;5033241;28;20406;-44
2023/07/17 01:41:28;;;;;;;5.43;2.78;;;;;;;27.21;38.21;99894.03;5033362;28;20079;-46
2023/07/17 01:43:54;;;;;;;5.22;3.00;;;;;;;27.68;37.27;99898.03;5033338;28;20014;-48
2023/07/17 01:46:19;;;;;;;4.00;2.70;;;;;;;26.94;38.88;99900.41;5033134;28;20028;-45
2023/07/17 01:48:45;;;;;;;5.20;2.88;;;;;;;26.66;39.02;99887.66;5033177;28;20390;-47
2023/07/17 01:51:10;;;;;;;4.60;3.00;;;;;;;26.40;40.13;99901.00;5033139;28;20034;-46
2023/07/17 01:53:36;;;;;;;4.15;3.05;;;;;;;26.45;40.70;99898.19;5031839;28;20021;-47
2023/07/17 01:56:02;;;;;;;6.43;3.20;;;;;;;26.48;40.82;99892.13;5033212;28;20037;-44
2023/07/17 01:58:28;;;;;;;5.70;2.95;;;;;;;26.71;40.46;99892.19;5033158;28;20033;-44
2023/07/17 02:00:54;;;;;;;4.10;2.70;;;;;;;26.69;40.20;99894.41;5032832;28;20472;-44
2023/07/17 02:03:20;;;;;;;6.10;3.20;;;;;;;27.21;38.90;99900.31;5032820;28;20129;-46
2023/07/17 02:05:45;;;;;;;4.18;2.90;;;;;;;26.65;40.30;99904.34;5032814;28;20033;-43
2023/07/17 02:08:11;;;;;;;6.65;2.80;;;;;;;26.45;40.90;99905.56;5032703;28;20576;-44
2023/07/17 02:10:40;;;;;;;4.63;3.03;;;;;;;26.58;40.21;99899.28;5032600;28;20033;-44
2023/07/17 02:13:06;;;;;;;5.07;3.15;;;;;;;26.79;40.17;99891.47;5032573;28;20045;-42
2023/07/17 02:15:31;;;;;;;4.95;2.90;;;;;;;26.81;40.53;99896.63;5032781;28;20053;-47
2023/07/17 02:17:57;;;;;;;5.32;2.88;;;;;;;26.87;40.42;99893.47;5032906;28;20021;-45
2023/07/17 02:20:23;;;;;;;5.13;3.08;;;;;;;26.85;40.47;99883.97;5032650;28;20025;-43
2023/07/17 02:22:49;;;;;;;3.88;3.20;;;;;;;26.91;40.25;99896.38;5032713;28;20017;-46
2023/07/17 02:25:14;;;;;;;3.38;2.85;;;;;;;26.38;41.32;99899.72;5032794;28;20021;-45
2023/07/17 02:27:39;;;;;;;3.25;2.78;;;;;;;26.41;41.43;99894.47;5032709;28;20036;-43
2023/07/17 02:30:05;;;;;;;4.28;3.22;;;;;;;26.33;41.62;99900.63;5032394;28;20049;-44
2023/07/17 02:32:31;;;;;;;4.13;3.22;;;;;;;26.36;41.36;99896.50;5032180;28;20400;-44
2023/07/17 02:34:57;;;;;;;6.15;3.25;;;;;;;26.23;41.78;99885.28;5032345;28;20097;-45
2023/07/17 02:37:22;;;;;;;8.02;4.13;;;;;;;26.27;41.82;99896.38;5032313;28;20021;-44
2023/07/17 02:39:47;;;;;;;5.35;3.33;;;;;;;26.75;40.89;99895.09;5032220;28;20091;-44
2023/07/17 02:42:13;;;;;;;5.50;3.33;;;;;;;26.18;42.10;99899.03;5031934;28;20026;-45
2023/07/17 02:44:38;;;;;;;4.85;3.53;;;;;;;25.94;42.80;99889.13;5032298;28;20024;-46
2023/07/17 02:47:04;;;;;;;6.47;3.47;;;;;;;25.76;43.64;99895.47;5031979;28;20025;-44
2023/07/17 02:49:29;;;;;;;5.25;3.55;;;;;;;25.90;43.21;99895.47;5031839;28;20028;-44
2023/07/17 02:51:55;;;;;;;5.55;3.42;;;;;;;26.05;43.21;99900.66;5032091;28;20029;-43
2023/07/17 02:54:21;;;;;;;5.00;3.67;;;;;;;26.20;43.08;99898.72;5031926;28;20101;-44
2023/07/17 02:56:48;;;;;;;4.97;3.58;;;;;;;26.17;43.28;99899.34;5031703;28;20025;-45
2023/07/17 02:59:13;;;;;;;8.10;3.88;;;;;;;26.90;41.33;99897.47;5031810;28;20033;-45
2023/07/17 03:01:38;;;;;;;6.60;4.13;;;;;;;26.09;43.59;99903.56;5031568;28;20151;-45
2023/07/17 03:04:04;;;;;;;6.65;3.92;;;;;;;25.91;44.18;99907.97;5031636;28;20028;-44
2023/07/17 03:06:29;;;;;;;7.32;3.60;;;;;;;25.94;44.37;99902.75;5031818;28;20108;-43
2023/07/17 03:08:55;;;;;;;4.68;3.33;;;;;;;26.10;44.03;99905.19;5031852;28;20037;-46
2023/07/17 03:11:20;;;;;;;7.25;3.67;;;;;;;26.24;43.63;99900.53;5031102;28;20060;-45
2023/07/17 03:13:46;;;;;;;5.75;3.80;;;;;;;26.38;43.22;99905.97;5031003;28;20029;-43
2023/07/17 03:16:11;;;;;;;6.03;3.70;;;;;;;26.30;43.21;99899.31;5031029;28;20022;-46
2023/07/17 03:18:36;;;;;;;7.25;4.20;;;;;;;26.90;42.21;99901.03;5031170;28;20029;-47
2023/07/17 03:21:03;;;;;;;23.50;16.48;;;;;;;26.26;43.29;99906.50;5031306;28;20031;-47
2023/07/17 03:23:29;;;;;;;15.32;9.50;;;;;;;25.99;44.16;99918.22;5031373;28;20159;-46
2023/07/17 03:25:56;;;;;;;25.75;14.90;;;;;;;25.85;44.31;99920.09;5030759;28;20109;-47
2023/07/17 03:28:21;;;;;;;8.98;5.78;;;;;;;26.01;43.75;99920.63;5031718;28;20029;-46
2023/07/17 03:30:47;;;;;;;7.03;3.70;;;;;;;26.12;43.50;99920.13;5031398;28;20364;-46
2023/07/17 03:33:13;;;;;;;7.68;3.63;;;;;;;26.31;42.98;99916.47;5031578;28;20036;-48
2023/07/17 03:35:38;;;;;;;5.53;3.70;;;;;;;26.38;42.44;99922.34;5031405;28;20337;-49
2023/07/17 03:38:04;;;;;;;3.92;3.42;;;;;;;26.76;41.42;99924.03;5031586;28;20085;-47
2023/07/17 03:40:29;;;;;;;7.13;4.15;;;;;;;26.60;41.53;99924.38;5031126;28;20056;-47
2023/07/17 03:42:55;;;;;;;6.25;3.90;;;;;;;26.14;42.67;99930.72;5031261;28;20140;-46
2023/07/17 03:45:20;;;;;;;5.05;3.70;;;;;;;26.20;42.37;99924.09;5031139;28;20017;-43
2023/07/17 03:47:46;;;;;;;5.65;3.80;;;;;;;26.47;41.97;99922.44;5031117;28;20644;-49
2023/07/17 03:50:11;;;;;;;7.38;4.05;;;;;;;26.40;42.09;99919.31;5030574;28;20143;-45
2023/07/17 03:52:37;;;;;;;6.57;3.70;;;;;;;26.59;41.43;99924.63;5030766;28;20036;-44
2023/07/17 03:55:03;;;;;;;7.43;3.63;;;;;;;26.83;41.20;99927.94;5030538;28;20033;-48
2023/07/17 03:57:28;;;;;;;12.02;7.10;;;;;;;27.29;40.29;99929.63;5030034;28;20042;-45
2023/07/17 03:59:55;;;;;;;5.90;4.05;;;;;;;27.48;39.94;99925.91;5030414;28;20033;-46
2023/07/17 04:02:21;;;;;;;6.18;4.25;;;;;;;27.29;40.60;99935.09;5030349;28;20055;-43
2023/07/17 04:04:47;;;;;;;6.32;4.00;;;;;;;27.35;40.29;99945.91;5030472;28;20041;-44
2023/07/17 04:07:13;;;;;;;8.32;4.20;;;;;;;27.57;39.82;99939.59;5029963;28;20917;-44
2023/07/17 04:09:38;;;;;;;6.97;3.92;;;;;;;27.79;39.24;99944.22;5030615;28;20037;-44
2023/07/17 04:12:05;;;;;;;6.43;3.92;;;;;;;27.83;39.22;99937.81;5029691;28;20522;-42
2023/07/17 04:14:32;;;;;;;19.67;13.35;;;;;;;28.23;39.09;99945.25;5030282;28;20412;-42
2023/07/17 04:16:58;;;;;;;8.75;5.68;;;;;;;28.59;39.07;99955.19;5029778;28;20389;-43
2023/07/17 04:19:23;;;;;;;5.88;4.03;;;;;;;28.84;39.28;99948.97;5030768;28;20044;-45
2023/07/17 04:21:49;;;;;;;9.50;3.95;;;;;;;29.06;39.09;99949.94;5030319;28;20477;-44
2023/07/17 04:24:14;;;;;;;8.07;4.30;;;;;;;29.34;38.94;99950.44;5030612;28;20017;-43
2023/07/17 04:26:40;;;;;;;5.97;4.43;;;;;;;29.81;38.01;99953.22;5030551;28;20037;-42
2023/07/17 04:29:06;;;;;;;44.85;30.83;;;;;;;29.51;38.72;99946.84;5030048;28;20071;-47
2023/07/17 04:31:32;;;;;;;35.88;25.15;;;;;;;29.34;39.56;99953.16;5030140;28;20385;-44
2023/07/17 04:33:58;;;;;;;8.35;4.32;;;;;;;29.57;38.89;99948.28;5030031;28;20477;-46
2023/07/17 04:36:24;;;;;;;8.43;4.28;;;;;;;29.73;38.80;99947.78;5030652;28;20029;-44
2023/07/17 04:38:49;;;;;;;4.93;3.85;;;;;;;30.23;37.48;99958.06;5030272;28;20052;-43
2023/07/17 04:41:16;;;;;;;6.40;4.07;;;;;;;30.44;37.57;99957.34;5029623;28;20091;-42
2023/07/17 04:43:42;;;;;;;7.55;4.30;;;;;;;30.70;37.21;99965.44;5029907;28;20032;-44
2023/07/17 04:46:07;;;;;;;6.72;4.40;;;;;;;31.11;36.53;99964.69;5029375;28;20030;-43
2023/07/17 04:48:33;;;;;;;4.97;4.32;;;;;;;31.55;35.80;99956.84;5029716;28;20079;-43
2023/07/17 04:50:58;;;;;;;6.03;4.30;;;;;;;31.25;35.98;99961.63;5029881;28;20041;-44
2023/07/17 04:53:23;;;;;;;5.85;4.35;;;;;;;31.08;36.12;99959.84;5029325;28;20500;-43
2023/07/17 04:55:49;;;;;;;7.03;4.25;;;;;;;31.19;36.00;99963.00;5029324;28;20031;-44
2023/07/17 04:58:15;;;;;;;8.00;4.00;;;;;;;31.29;36.16;99964.53;5028551;28;20057;-45
2023/07/17 05:00:42;;;;;;;5.68;3.90;;;;;;;31.62;35.70;99966.47;5029258;28;20033;-44
2023/07/17 05:03:09;;;;;;;7.00;4.68;;;;;;;31.83;35.23;99956.19;5029098;28;20133;-45
2023/07/17 05:05:35;;;;;;;13.18;7.72;;;;;;;32.13;34.95;99956.03;5029144;28;20122;-44
2023/07/17 05:08:00;;;;;;;6.45;4.07;;;;;;;33.17;33.31;99961.19;5029247;28;20136;-43
2023/07/17 05:10:26;;;;;;;6.70;4.13;;;;;;;32.75;33.56;99965.09;5029442;28;20022;-45
2023/07/17 05:12:53;;;;;;;8.50;4.05;;;;;;;32.21;34.37;99960.63;5028868;28;20049;-43
2023/07/17 05:15:18;;;;;;;5.63;3.92;;;;;;;32.34;34.25;99961.44;5030060;28;20068;-45
2023/07/17 05:17:44;;;;;;;9.02;4.10;;;;;;;32.76;33.40;99957.63;5030426;28;20017;-43
2023/07/17 05:20:09;;;;;;;6.47;3.67;;;;;;;32.78;32.47;99958.88;5030336;28;20022;-43
2023/07/17 05:22:35;;;;;;;4.68;3.55;;;;;;;32.85;32.17;99970.09;5029636;28;20044;-45
2023/07/17 05:25:00;;;;;;;7.35;3.70;;;;;;;33.20;32.06;99964.03;5030258;28;20075;-45
2023/07/17 05:27:26;;;;;;;8.85;3.55;;;;;;;33.93;30.24;99964.84;5029981;28;20032;-44
2023/07/17 05:29:51;;;;;;;4.28;3.30;;;;;;;33.50;30.73;99963.69;5033818;28;20024;-46
2023/07/17 05:32:17;;;;;;;7.20;3.33;;;;;;;33.38;30.82;99963.75;5033686;28;20025;-43
2023/07/17 05:34:42;;;;;;;5.57;3.50;;;;;;;33.46;30.67;99955.31;5033424;28;20032;-44
2023/07/17 05:37:08;;;;;;;5.70;3.30;;;;;;;33.67;29.66;99957.06;5033308;28;20558;-45
2023/07/17 05:39:34;;;;;;;4.88;3.30;;;;;;;33.78;30.30;99960.91;5033238;28;20485;-43
2023/07/17 05:41:59;;;;;;;5.63;3.60;;;;;;;33.39;29.54;99946.03;5031718;28;20083;-45
2023/07/17 05:44:24;;;;;;;7.05;3.35;;;;;;;34.05;29.73;99955.66;5033029;28;20010;-43
2023/07/17 05:46:50;;;;;;;4.47;3.17;;;;;;;33.78;30.54;99958.16;5033181;28;20024;-46
2023/07/17 05:49:15;;;;;;;5.05;3.22;;;;;;;33.93;29.93;99961.25;5033255;28;20118;-45
2023/07/17 05:51:41;;;;;;;6.60;3.30;;;;;;;34.21;29.30;99950.13;5032415;28;20017;-45
2023/07/17 05:54:06;;;;;;;5.25;3.20;;;;;;;34.34;28.84;99956.38;5031429;28;20025;-43
2023/07/17 05:56:32;;;;;;;7.15;3.40;;;;;;;34.54;29.19;99959.97;5030411;28;20029;-46
2023/07/17 05:58:57;;;;;;;5.30;2.95;;;;;;;34.98;29.42;99957.00;5030979;28;20022;-44
2023/07/17 06:01:23;;;;;;;5.68;3.50;;;;;;;35.35;28.61;99962.09;5028813;28;20018;-45
2023/07/17 06:03:48;;;;;;;7.78;5.03;;;;;;;35.38;28.15;99964.94;5029091;28;20028;-43
2023/07/17 06:06:13;;;;;;;9.27;4.72;;;;;;;35.43;28.29;99956.34;5028781;28;20032;-44
2023/07/17 06:08:39;;;;;;;7.85;4.28;;;;;;;35.04;28.69;99961.88;5028929;28;20029;-43
2023/07/17 06:11:04;;;;;;;8.95;4.03;;;;;;;35.52;28.45;99952.53;5028994;28;20038;-44
2023/07/17 06:13:30;;;;;;;3.65;3.10;;;;;;;35.63;28.31;99953.53;5030488;28;20030;-45
2023/07/17 06:15:55;;;;;;;5.25;3.47;;;;;;;35.77;27.37;99953.78;5031716;28;20028;-43
2023/07/17 06:18:20;;;;;;;5.60;3.17;;;;;;;35.47;28.19;99958.38;5031428;28;20441;-45
2023/07/17 06:20:46;;;;;;;6.53;3.40;;;;;;;35.75;27.51;99949.81;5031625;28;20029;-43
2023/07/17 06:23:11;;;;;;;5.18;3.20;;;;;;;36.10;27.49;99951.56;5031977;28;20021;-45
2023/07/17 06:25:38;;;;;;;8.88;4.47;;;;;;;36.55;27.00;99947.13;5031861;28;20121;-44
2023/07/17 06:28:04;;;;;;;4.68;2.88;;;;;;;36.62;26.67;99941.69;5032338;28;20096;-45
2023/07/17 06:30:31;;;;;;;6.03;3.17;;;;;;;37.30;25.56;99942.56;5032561;28;20064;-48
2023/07/17 06:32:57;;;;;;;5.20;3.45;;;;;;;37.12;25.42;99941.53;5032075;28;20100;-45
2023/07/17 06:35:22;;;;;;;5.88;3.10;;;;;;;37.00;25.76;99947.34;5032115;28;20029;-45
2023/07/17 06:37:48;;;;;;;4.38;3.20;;;;;;;36.83;25.88;99935.66;5031684;28;20032;-46
2023/07/17 06:40:13;;;;;;;5.30;3.47;;;;;;;36.78;25.70;99938.75;5030725;28;20029;-46
2023/07/17 06:42:39;;;;;;;5.15;3.53;;;;;;;36.05;26.04;99938.06;5031405;28;20033;-45
2023/07/17 06:45:05;;;;;;;4.45;3.35;;;;;;;36.66;25.29;99936.22;5031744;28;20101;-43
2023/07/17 06:47:30;;;;;;;4.10;3.15;;;;;;;37.16;25.20;99937.63;5031603;28;20034;-44
2023/07/17 06:49:57;;;;;;;5.05;3.70;;;;;;;36.85;25.29;99927.75;5031623;28;21076;-45
2023/07/17 06:52:23;;;;;;;4.13;3.25;;;;;;;36.55;25.72;99931.28;5031679;28;20112;-44
2023/07/17 06:54:48;;;;;;;5.03;3.90;;;;;;;36.69;25.52;99922.41;5031738;28;20472;-43
2023/07/17 06:57:14;;;;;;;4.18;3.10;;;;;;;37.16;25.42;99928.53;5031223;28;20056;-43
2023/07/17 06:59:39;;;;;;;5.05;3.25;;;;;;;37.86;24.61;99926.03;5031198;28;20030;-43
2023/07/17 07:02:05;;;;;;;4.05;3.05;;;;;;;38.01;24.45;99921.41;5031352;28;20025;-44
2023/07/17 07:04:31;;;;;;;5.60;3.20;;;;;;;38.98;23.25;99917.19;5031078;28;20152;-47
2023/07/17 07:06:56;;;;;;;4.95;3.10;;;;;;;38.33;23.94;99910.53;5031204;28;20140;-43
2023/07/17 07:09:22;;;;;;;3.42;3.10;;;;;;;38.30;23.59;99909.31;5031268;28;20029;-44
2023/07/17 07:11:47;;;;;;;3.80;3.08;;;;;;;38.38;23.59;99901.00;5030893;28;20056;-43
2023/07/17 07:14:12;;;;;;;3.97;3.10;;;;;;;38.40;23.44;99902.22;5030642;28;20098;-43
2023/07/17 07:16:38;;;;;;;6.05;3.17;;;;;;;38.72;23.53;99902.38;5030758;28;20467;-43
2023/07/17 07:19:04;;;;;;;5.05;2.80;;;;;;;39.16;23.40;99908.91;5031296;28;20131;-43
2023/07/17 07:21:29;;;;;;;4.22;3.20;;;;;;;39.59;22.17;99908.22;5030807;28;20032;-46
2023/07/17 07:23:55;;;;;;;5.07;3.47;;;;;;;38.90;22.34;99896.13;5031380;28;20018;-47
2023/07/17 07:26:20;;;;;;;5.65;3.30;;;;;;;38.87;22.22;99891.34;5030796;28;20035;-44
2023/07/17 07:28:45;;;;;;;4.07;3.08;;;;;;;39.00;22.33;99883.47;5030556;28;20027;-44
2023/07/17 07:31:11;;;;;;;5.00;3.10;;;;;;;39.10;22.14;99883.47;5030573;28;20108;-45
2023/07/17 07:33:36;;;;;;;3.92;3.40;;;;;;;39.28;22.44;99883.50;5030349;28;20373;-46
2023/07/17 07:36:02;;;;;;;5.65;3.40;;;;;;;39.67;21.30;99877.19;5030661;28;20116;-44
2023/07/17 07:38:28;;;;;;;5.45;3.60;;;;;;;39.08;21.71;99871.94;5030706;28;20354;-44
2023/07/17 07:40:53;;;;;;;6.18;3.20;;;;;;;38.21;22.54;99878.28;5030989;28;20473;-43
2023/07/17 07:43:19;;;;;;;5.95;3.63;;;;;;;38.41;22.63;99872.47;5030580;28;20560;-47
2023/07/17 07:45:44;;;;;;;4.93;3.42;;;;;;;38.62;22.42;99871.78;5030745;28;20036;-46
2023/07/17 07:48:10;;;;;;;4.18;3.20;;;;;;;39.03;22.06;99880.69;5030702;28;20043;-45
2023/07/17 07:50:35;;;;;;;4.28;3.40;;;;;;;39.46;21.97;99875.19;5029721;28;20410;-43
2023/07/17 07:53:01;;;;;;;3.90;3.42;;;;;;;39.72;22.02;99866.84;5030016;28;20323;-46
2023/07/17 07:55:26;;;;;;;5.20;3.17;;;;;;;39.43;22.00;99873.19;5030472;28;20428;-46
2023/07/17 07:57:52;;;;;;;5.35;3.22;;;;;;;39.28;22.59;99868.78;5030367;28;20029;-43
2023/07/17 08:00:17;;;;;;;6.03;3.45;;;;;;;39.45;22.22;99864.44;5030035;28;20121;-45
2023/07/17 08:02:43;;;;;;;4.82;3.00;;;;;;;39.90;22.09;99866.84;5029994;28;20029;-47
2023/07/17 08:05:10;;;;;;;4.07;3.20;;;;;;;40.02;22.20;99867.25;5030527;28;20382;-45
2023/07/17 08:07:35;;;;;;;5.05;3.13;;;;;;;40.94;20.46;99853.38;5030105;28;20055;-44
2023/07/17 08:10:01;;;;;;;5.78;3.35;;;;;;;40.17;20.84;99858.81;5030270;28;20030;-46
2023/07/17 08:12:26;;;;;;;4.32;3.28;;;;;;;39.69;20.95;99863.66;5030003;28;20330;-43
2023/07/17 08:14:53;;;;;;;5.47;3.13;;;;;;;39.55;21.21;99860.91;5028806;28;20060;-46
2023/07/17 08:17:18;;;;;;;5.65;3.35;;;;;;;39.63;21.87;99858.91;5030076;28;20410;-48
2023/07/17 08:19:44;;;;;;;3.70;3.30;;;;;;;40.11;21.58;99861.22;5030196;28;20159;-44
2023/07/17 08:22:09;;;;;;;5.63;3.55;;;;;;;40.39;20.39;99849.22;5029859;28;20048;-48
2023/07/17 08:24:35;;;;;;;4.07;3.28;;;;;;;39.67;21.50;99852.13;5030008;28;20492;-46
2023/07/17 08:27:00;;;;;;;4.28;3.20;;;;;;;39.40;21.23;99843.38;5030069;28;20037;-47
2023/07/17 08:29:26;;;;;;;6.25;3.50;;;;;;;39.21;21.43;99847.31;5030337;28;20056;-45
2023/07/17 08:31:51;;;;;;;4.45;3.40;;;;;;;39.55;22.12;99846.97;5029823;28;20493;-46
2023/07/17 08:34:22;;;;;;;3.70;3.28;;;;;;;39.83;20.62;99845.34;5029964;28;20025;-44
2023/07/17 08:36:48;;;;;;;5.97;3.58;;;;;;;39.49;20.93;99841.00;5030349;28;20044;-45
2023/07/17 08:39:13;;;;;;;5.55;3.47;;;;;;;40.18;21.13;99838.13;5029903;28;20029;-45
2023/07/17 08:41:41;;;;;;;4.68;3.38;;;;;;;40.12;20.66;99839.72;5029733;28;20509;-44
2023/07/17 08:44:07;;;;;;;3.90;3.50;;;;;;;39.72;21.90;99842.59;5029946;28;20017;-44
2023/07/17 08:46:33;;;;;;;4.88;3.65;;;;;;;39.49;22.54;99835.44;5029925;28;20033;-44
2023/07/17 08:49:01;;;;;;;5.40;3.33;;;;;;;40.01;22.00;99842.56;5029630;28;20024;-45
2023/07/17 08:51:29;;;;;;;5.03;3.83;;;;;;;39.82;21.75;99838.97;5029784;28;20029;-43
2023/07/17 08:53:58;;;;;;;6.83;3.90;;;;;;;39.98;21.52;99837.78;5029554;28;20424;-45
2023/07/17 08:56:25;;;;;;;4.45;3.20;;;;;;;40.33;21.68;99828.56;5029858;28;20194;-46
2023/07/17 08:58:54;;;;;;;4.43;3.80;;;;;;;40.12;21.68;99832.19;5029693;28;20420;-45
2023/07/17 09:01:19;;;;;;;5.57;4.40;;;;;;;40.20;21.78;99832.97;5029482;28;20187;-44
2023/07/17 09:03:45;;;;;;;4.97;3.50;;;;;;;40.30;21.34;99823.75;5032666;28;20045;-48
2023/07/17 09:06:13;;;;;;;4.10;3.70;;;;;;;40.24;21.55;99826.16;5033176;28;20338;-44
2023/07/17 09:08:39;;;;;;;6.45;3.50;;;;;;;40.10;21.70;99817.06;5032952;28;20033;-46
2023/07/17 09:11:06;;;;;;;8.05;3.92;;;;;;;40.60;21.11;99825.25;5033231;28;20142;-45
2023/07/17 09:13:38;;;;;;;3.70;3.28;;;;;;;40.15;21.26;99820.22;5033161;28;20030;-44
2023/07/17 09:16:24;;;;;;;4.78;3.78;;;;;;;39.46;22.17;99822.31;5033495;28;20025;-56
2023/07/17 09:18:52;;;;;;;4.80;3.50;;;;;;;39.49;21.94;99807.59;5033522;28;20112;-45
2023/07/17 09:21:20;;;;;;;6.03;3.85;;;;;;;39.83;21.61;99817.50;5033654;28;20025;-45
2023/07/17 09:23:48;;;;;;;5.05;3.70;;;;;;;39.84;21.45;99810.75;5033304;28;20080;-45
2023/07/17 09:26:17;;;;;;;7.25;3.63;;;;;;;40.12;21.25;99806.28;5033336;28;20017;-45
2023/07/17 09:28:55;;;;;;;4.07;3.60;;;;;;;41.27;21.09;99800.16;5033071;28;20025;-45
2023/07/17 09:31:27;;;;;;;5.00;3.63;;;;;;;40.87;20.90;99803.19;5033019;28;20443;-47
2023/07/17 09:33:54;;;;;;;5.32;3.58;;;;;;;40.45;22.02;99797.44;5033153;28;20279;-44
2023/07/17 09:36:21;;;;;;;4.85;3.50;;;;;;;40.65;22.00;99799.72;5032935;28;20452;-45
2023/07/17 09:38:54;;;;;;;5.13;3.78;;;;;;;40.77;21.60;99796.50;5032984;28;20052;-47
2023/07/17 09:41:23;;;;;;;4.43;3.35;;;;;;;40.84;21.99;99801.22;5032958;28;20493;-45
2023/07/17 09:43:52;;;;;;;5.32;3.85;;;;;;;41.26;21.09;99791.00;5032616;28;20052;-43
2023/07/17 09:46:18;;;;;;;8.60;3.85;;;;;;;41.04;21.00;99788.31;5033022;28;20025;-45
2023/07/17 09:48:43;;;;;;;6.03;3.97;;;;;;;40.91;21.38;99790.00;5033034;28;20025;-45
2023/07/17 09:51:11;;;;;;;6.20;4.45;;;;;;;40.72;21.30;99793.31;5033261;28;20017;-46
2023/07/17 09:53:36;;;;;;;7.07;4.10;;;;;;;40.64;21.28;99787.78;5032995;28;20080;-46
2023/07/17 09:56:05;;;;;;;5.13;3.88;;;;;;;40.55;21.50;99778.28;5032725;28;20033;-48
2023/07/17 09:58:32;;;;;;;4.13;3.72;;;;;;;40.53;21.54;99780.69;5033085;28;20072;-44
2023/07/17 10:00:58;;;;;;;6.13;4.00;;;;;;;41.02;20.85;99773.22;5032591;28;20033;-45
2023/07/17 10:03:25;;;;;;;4.53;4.00;;;;;;;40.99;21.60;99774.03;5032663;28;20075;-46
2023/07/17 10:05:52;;;;;;;4.93;4.28;;;;;;;40.88;21.93;99771.31;5032643;28;20022;-45
2023/07/17 10:08:18;;;;;;;6.65;3.80;;;;;;;40.45;21.54;99763.97;5032407;28;20034;-46
2023/07/17 10:10:43;;;;;;;8.65;4.00;;;;;;;40.43;21.65;99769.16;5032150;28;20075;-48
2023/07/17 10:13:10;;;;;;;5.68;3.92;;;;;;;40.36;22.10;99765.63;5032155;28;20057;-46
2023/07/17 10:15:37;;;;;;;6.05;3.95;;;;;;;40.27;22.91;99757.69;5031626;28;20026;-45
2023/07/17 10:18:08;;;;;;;7.27;4.00;;;;;;;39.97;22.60;99761.00;5032332;28;20025;-45
2023/07/17 10:20:33;;;;;;;6.78;3.80;;;;;;;39.19;23.81;99757.91;5031857;28;20087;-45
2023/07/17 10:22:59;;;;;;;6.95;4.13;;;;;;;39.39;23.76;99749.13;5031822;28;20072;-47
2023/07/17 10:25:26;;;;;;;8.48;4.20;;;;;;;39.46;23.23;99749.94;5032131;28;20017;-50
2023/07/17 10:27:57;;;;;;;8.15;4.25;;;;;;;39.28;22.91;99751.91;5032071;28;20040;-48
2023/07/17 10:30:33;;;;;;;6.82;3.95;;;;;;;39.33;23.62;99753.53;5032433;28;20030;-44
2023/07/17 10:33:28;;;;;;;4.93;4.00;;;;;;;39.30;23.63;99744.78;5032119;28;20045;-46
2023/07/17 10:36:00;;;;;;;6.57;4.20;;;;;;;38.80;24.21;99725.25;5029800;28;20045;-44
2023/07/17 10:38:28;;;;;;;4.95;3.97;;;;;;;38.46;24.57;99731.16;5031758;28;20104;-45
2023/07/17 10:41:02;;;;;;;4.60;3.95;;;;;;;37.98;24.87;99734.13;5031998;28;20027;-45
2023/07/17 10:43:28;;;;;;;6.80;4.32;;;;;;;37.98;24.87;99722.22;5031703;28;20033;-45
2023/07/17 10:45:53;;;;;;;6.40;4.53;;;;;;;37.99;25.28;99712.72;5032008;28;20029;-43
2023/07/17 10:48:23;;;;;;;4.43;4.00;;;;;;;37.53;26.12;99714.84;5032527;28;20055;-44
2023/07/17 10:50:54;;;;;;;5.38;4.28;;;;;;;37.87;25.67;99714.66;5031983;28;20029;-46
2023/07/17 10:53:20;;;;;;;5.97;4.13;;;;;;;37.74;25.97;99705.84;5031641;28;20485;-43
2023/07/17 10:55:46;;;;;;;4.97;4.30;;;;;;;37.77;25.72;99701.50;5031847;28;20025;-44
2023/07/17 10:58:13;;;;;;;6.28;4.45;;;;;;;38.07;25.11;99704.03;5031703;28;20032;-43
2023/07/17 11:00:43;;;;;;;4.70;4.20;;;;;;;37.74;25.75;99716.97;5031790;28;20036;-46
2023/07/17 11:03:09;;;;;;;7.88;4.25;;;;;;;38.37;25.33;99710.50;5031787;28;20064;-45
2023/07/17 11:05:40;;;;;;;6.55;4.78;;;;;;;38.86;24.53;99708.97;5031444;28;20021;-47
2023/07/17 11:08:09;;;;;;;6.82;4.32;;;;;;;38.74;25.11;99701.84;5031596;28;20021;-45
2023/07/17 11:10:38;;;;;;;5.45;4.38;;;;;;;39.04;25.00;99704.25;5031351;28;20025;-44
2023/07/17 11:13:04;;;;;;;5.15;4.40;;;;;;;38.73;24.74;99691.91;5030975;28;20517;-46
2023/07/17 11:15:32;;;;;;;7.00;4.50;;;;;;;38.95;24.91;99689.13;5031464;28;20112;-46
2023/07/17 11:18:01;;;;;;;8.02;4.60;;;;;;;39.39;24.24;99687.91;5031349;28;20029;-47
2023/07/17 11:20:28;;;;;;;6.75;4.45;;;;;;;39.42;24.80;99692.69;5031157;28;20033;-45
2023/07/17 11:22:53;;;;;;;5.50;4.32;;;;;;;39.52;23.88;99696.66;5030909;28;20032;-47
2023/07/17 11:25:20;;;;;;;5.28;4.53;;;;;;;39.42;24.16;99696.25;5031048;28;20025;-43
2023/07/17 11:27:46;;;;;;;6.22;4.40;;;;;;;39.67;23.92;99693.44;5030959;28;20048;-46
2023/07/17 11:30:24;;;;;;;5.05;4.38;;;;;;;40.17;24.09;99684.09;5030807;28;20060;-46